Time;durP1;ratioP1;P1;durP2;ratioP2;P2;SDS_P1;SDS_P2;PMS_P1;PMS_P2;Temp;Humidity;BMP_temperature;BMP_pressure;BME280_temperature;BME280_humidity;BME280_pressure;Samples;Min_cycle;Max_cycle;Signal;HPM_P1;HPM_P2
2023/03/10 00:01:36;;;;;;;;;;;;;;;5.32;55.82;91215.00;2053011;70;20047;-75
2023/03/10 00:04:01;;;;;;;;;;;;;;;5.47;55.25;91220.00;2052963;70;20462;-76
2023/03/10 00:06:28;;;;;;;;;;;;;;;5.13;56.21;91220.88;2053330;70;20147;-75
2023/03/10 00:08:54;;;;;;;;;;;;;;;4.73;58.45;91223.53;2052903;70;20055;-76
2023/03/10 00:11:20;;;;;;;;;;;;;;;4.97;57.36;91215.09;2053082;70;20145;-74
2023/03/10 00:13:46;;;;;;;;;;;;;;;5.29;56.49;91216.94;2052748;70;20089;-76
2023/03/10 00:16:19;;;;;;;;;;;;;;;5.25;56.46;91207.59;2049350;70;20138;-72
2023/03/10 00:18:45;;;;;;;;;;;;;;;5.29;55.30;91197.41;2052828;70;20163;-74
2023/03/10 00:21:15;;;;;;;;;;;;;;;5.31;56.46;91188.41;2049703;70;20043;-77
2023/03/10 00:23:40;;;;;;;;;;;;;;;4.90;57.26;91194.50;2049202;70;20051;-75
2023/03/10 00:26:06;;;;;;;;;;;;;;;5.00;56.97;91194.38;2053093;70;20173;-74
2023/03/10 00:28:31;;;;;;;;;;;;;;;5.27;55.84;91182.63;2052578;70;20436;-75
2023/03/10 00:30:58;;;;;;;;;;;;;;;5.36;55.13;91173.38;2052783;70;20054;-75
2023/03/10 00:33:23;;;;;;;;;;;;;;;5.22;56.06;91161.41;2053164;70;20113;-75
2023/03/10 00:35:49;;;;;;;;;;;;;;;5.31;55.74;91171.66;2052559;70;20110;-75
2023/03/10 00:38:14;;;;;;;;;;;;;;;5.33;55.59;91166.22;2049443;70;20099;-76
2023/03/10 00:40:40;;;;;;;;;;;;;;;5.38;55.57;91162.28;2049542;70;20054;-74
2023/03/10 00:43:07;;;;;;;;;;;;;;;4.62;57.73;91168.50;2049487;70;20054;-71
2023/03/10 00:45:34;;;;;;;;;;;;;;;4.93;56.97;91164.69;2052450;70;20453;-71
2023/03/10 00:47:59;;;;;;;;;;;;;;;5.05;56.19;91177.25;2049136;70;20101;-72
2023/03/10 00:50:25;;;;;;;;;;;;;;;4.99;56.46;91174.09;2052573;70;20138;-72
2023/03/10 00:52:50;;;;;;;;;;;;;;;5.14;56.51;91180.50;2046695;70;20062;-76
2023/03/10 00:55:16;;;;;;;;;;;;;;;5.18;56.73;91172.31;2046524;70;20047;-74
2023/03/10 00:57:41;;;;;;;;;;;;;;;4.85;57.04;91168.44;2052928;70;20062;-74
2023/03/10 01:00:09;;;;;;;;;;;;;;;4.85;57.72;91159.34;2049238;70;20073;-74
2023/03/10 01:02:35;;;;;;;;;;;;;;;5.07;56.92;91155.03;2052596;70;20043;-75
2023/03/10 01:05:04;;;;;;;;;;;;;;;5.08;56.61;91136.94;2049485;70;20112;-76
2023/03/10 01:07:29;;;;;;;;;;;;;;;5.13;56.51;91132.31;2046872;70;20083;-77
2023/03/10 01:09:54;;;;;;;;;;;;;;;5.16;55.82;91117.16;2053102;70;20047;-78
2023/03/10 01:12:20;;;;;;;;;;;;;;;5.32;55.36;91097.81;2046864;70;20134;-76
2023/03/10 01:14:46;;;;;;;;;;;;;;;5.36;56.09;91084.06;2052465;70;20043;-76
2023/03/10 01:17:11;;;;;;;;;;;;;;;4.40;59.35;91086.44;2049448;70;20123;-73
2023/03/10 01:19:37;;;;;;;;;;;;;;;4.84;57.83;91082.63;2049271;70;20058;-74
2023/03/10 01:22:04;;;;;;;;;;;;;;;5.04;57.90;91074.66;2052694;70;20144;-77
2023/03/10 01:24:29;;;;;;;;;;;;;;;5.00;56.85;91060.50;2052481;70;20046;-77
2023/03/10 01:26:55;;;;;;;;;;;;;;;4.90;57.86;91065.50;2052870;70;20166;-77
2023/03/10 01:29:20;;;;;;;;;;;;;;;5.00;57.16;91061.22;2049328;70;20047;-74
2023/03/10 01:31:45;;;;;;;;;;;;;;;5.10;57.09;91061.06;2049422;70;20063;-76
2023/03/10 01:34:11;;;;;;;;;;;;;;;4.93;57.13;91053.13;2052532;70;20501;-76
2023/03/10 01:36:39;;;;;;;;;;;;;;;4.49;59.26;91054.91;2049313;70;20058;-78
2023/03/10 01:39:05;;;;;;;;;;;;;;;4.81;58.23;91047.59;2052735;69;20043;-77
2023/03/10 01:41:30;;;;;;;;;;;;;;;4.91;57.87;91044.69;2049218;70;20405;-78
2023/03/10 01:43:56;;;;;;;;;;;;;;;4.98;57.12;91024.84;2052875;70;20047;-76
2023/03/10 01:46:31;;;;;;;;;;;;;;;5.06;57.74;91030.16;2052327;70;20046;-75
2023/03/10 01:49:16;;;;;;;;;;;;;;;5.01;57.41;91023.63;2049329;70;20074;-76
2023/03/10 01:51:44;;;;;;;;;;;;;;;5.13;57.32;91001.22;2049537;69;20422;-75
2023/03/10 01:54:12;;;;;;;;;;;;;;;4.55;59.49;91003.03;2052520;70;20062;-74
2023/03/10 01:56:38;;;;;;;;;;;;;;;4.84;58.44;90987.84;2049302;70;20112;-70
2023/03/10 01:59:04;;;;;;;;;;;;;;;4.94;58.56;90982.81;2052443;69;20058;-77
2023/03/10 02:01:30;;;;;;;;;;;;;;;4.99;58.69;90994.91;2052304;70;20086;-77
2023/03/10 02:03:59;;;;;;;;;;;;;;;4.53;59.83;91008.47;2052523;70;20108;-78
2023/03/10 02:06:25;;;;;;;;;;;;;;;4.61;59.65;91002.63;2052784;70;20138;-78
2023/03/10 02:08:53;;;;;;;;;;;;;;;5.05;58.00;91009.19;2049576;70;20111;-78
2023/03/10 02:11:18;;;;;;;;;;;;;;;4.45;60.03;91018.47;2049444;69;20057;-77
2023/03/10 02:13:44;;;;;;;;;;;;;;;4.77;59.34;91011.19;2046505;70;20055;-78
2023/03/10 02:16:10;;;;;;;;;;;;;;;4.94;57.72;90977.22;2049005;70;20046;-78
2023/03/10 02:18:35;;;;;;;;;;;;;;;4.94;58.30;91001.59;2052763;70;20051;-76
2023/03/10 02:21:13;;;;;;;;;;;;;;;4.90;57.65;91006.97;2052660;70;20051;-76
2023/03/10 02:23:53;;;;;;;;;;;;;;;4.98;58.32;90999.03;2052432;70;20575;-75
2023/03/10 02:26:22;;;;;;;;;;;;;;;4.91;58.25;90988.91;2049332;69;20500;-75
2023/03/10 02:28:49;;;;;;;;;;;;;;;4.51;59.39;90977.72;2049242;70;20196;-75
2023/03/10 02:31:15;;;;;;;;;;;;;;;4.63;59.82;90963.75;2049061;70;20153;-75
2023/03/10 02:33:43;;;;;;;;;;;;;;;4.87;58.70;90969.19;2048826;70;20082;-74
2023/03/10 02:36:13;;;;;;;;;;;;;;;4.61;59.75;90971.25;2048972;70;20119;-76
2023/03/10 02:38:39;;;;;;;;;;;;;;;4.37;59.64;90957.44;2049119;70;20496;-75
2023/03/10 02:41:12;;;;;;;;;;;;;;;4.44;60.65;90945.28;2052215;70;20059;-75
2023/03/10 02:43:38;;;;;;;;;;;;;;;4.31;61.41;90949.50;2051988;70;20502;-73
2023/03/10 02:46:11;;;;;;;;;;;;;;;4.62;60.02;90944.84;2049170;70;20054;-74
2023/03/10 02:48:40;;;;;;;;;;;;;;;4.73;58.58;90936.41;2049393;69;20521;-77
2023/03/10 02:51:16;;;;;;;;;;;;;;;4.73;58.07;90927.31;2048846;70;20148;-73
2023/03/10 02:53:42;;;;;;;;;;;;;;;4.75;58.18;90930.22;2049242;70;20042;-74
2023/03/10 02:56:08;;;;;;;;;;;;;;;4.77;57.81;90938.69;2049037;69;20057;-74
2023/03/10 02:58:36;;;;;;;;;;;;;;;4.83;57.92;90948.09;2049108;70;20054;-75
2023/03/10 03:01:05;;;;;;;;;;;;;;;4.79;57.83;90936.72;2048876;69;20493;-75
2023/03/10 03:03:35;;;;;;;;;;;;;;;4.85;57.43;90931.47;2049139;70;20133;-75
2023/03/10 03:06:00;;;;;;;;;;;;;;;4.80;56.65;90921.44;2049116;70;20161;-72
2023/03/10 03:08:26;;;;;;;;;;;;;;;4.92;57.24;90918.56;2048584;70;20658;-74
2023/03/10 03:10:52;;;;;;;;;;;;;;;5.00;56.61;90927.38;2048701;69;20050;-73
2023/03/10 03:13:18;;;;;;;;;;;;;;;5.21;56.03;90917.97;2052110;70;20042;-77
2023/03/10 03:15:43;;;;;;;;;;;;;;;5.14;54.90;90913.44;2052119;70;20126;-76
2023/03/10 03:18:09;;;;;;;;;;;;;;;5.01;57.25;90914.16;2045685;70;20062;-76
2023/03/10 03:20:36;;;;;;;;;;;;;;;4.72;58.38;90909.13;2046033;70;20058;-76
2023/03/10 03:23:02;;;;;;;;;;;;;;;4.51;59.16;90910.13;2048680;70;20083;-77
2023/03/10 03:25:33;;;;;;;;;;;;;;;4.76;58.40;90896.13;2048566;69;20046;-77
2023/03/10 03:27:58;;;;;;;;;;;;;;;4.81;58.19;90895.03;2049167;69;20150;-78
2023/03/10 03:30:25;;;;;;;;;;;;;;;4.82;57.62;90876.22;2052274;70;20216;-77
2023/03/10 03:32:51;;;;;;;;;;;;;;;4.94;58.06;90878.91;2049204;70;20073;-75
2023/03/10 03:35:23;;;;;;;;;;;;;;;4.92;57.81;90873.97;2049073;70;20086;-75
2023/03/10 03:37:49;;;;;;;;;;;;;;;4.75;58.59;90871.66;2049107;70;20073;-73
2023/03/10 03:40:15;;;;;;;;;;;;;;;4.85;58.19;90872.19;2052598;70;20074;-76
2023/03/10 03:42:45;;;;;;;;;;;;;;;4.76;58.31;90876.63;2049136;69;20269;-74
2023/03/10 03:45:11;;;;;;;;;;;;;;;4.97;57.79;90880.47;2049193;70;20425;-78
2023/03/10 03:47:37;;;;;;;;;;;;;;;4.91;58.19;90880.16;2052567;69;20059;-75
2023/03/10 03:50:03;;;;;;;;;;;;;;;4.51;59.38;90876.69;2052433;70;20424;-77
2023/03/10 03:52:28;;;;;;;;;;;;;;;4.67;58.25;90885.19;2049087;69;20054;-78
2023/03/10 03:54:55;;;;;;;;;;;;;;;4.96;57.48;90882.53;2049207;70;20493;-77
2023/03/10 03:57:21;;;;;;;;;;;;;;;4.45;59.58;90882.69;2049193;70;20062;-77
2023/03/10 03:59:46;;;;;;;;;;;;;;;4.81;58.94;90871.97;2049263;70;20398;-75
2023/03/10 04:02:12;;;;;;;;;;;;;;;4.89;58.59;90863.31;2049126;70;20481;-76
2023/03/10 04:04:37;;;;;;;;;;;;;;;4.95;58.23;90855.25;2052641;70;20441;-73
2023/03/10 04:07:03;;;;;;;;;;;;;;;4.89;58.90;90858.47;2049191;70;20173;-75
2023/03/10 04:09:29;;;;;;;;;;;;;;;4.82;58.67;90859.50;2049031;70;20113;-72
2023/03/10 04:11:55;;;;;;;;;;;;;;;5.07;57.98;90858.69;2052467;70;20047;-73
2023/03/10 04:14:21;;;;;;;;;;;;;;;5.06;57.86;90846.81;2049126;70;20488;-72
2023/03/10 04:16:47;;;;;;;;;;;;;;;4.85;59.35;90850.59;2049085;70;20058;-75
2023/03/10 04:19:13;;;;;;;;;;;;;;;4.81;59.16;90858.78;2048991;70;20212;-77
2023/03/10 04:21:42;;;;;;;;;;;;;;;4.70;60.51;90848.44;2049187;70;20057;-77
2023/03/10 04:24:08;;;;;;;;;;;;;;;4.52;60.13;90861.41;2049177;70;20062;-77
2023/03/10 04:26:33;;;;;;;;;;;;;;;4.76;60.05;90865.47;2049209;70;20500;-75
2023/03/10 04:29:00;;;;;;;;;;;;;;;5.04;58.68;90848.75;2046502;70;20434;-78
2023/03/10 04:31:27;;;;;;;;;;;;;;;5.15;58.20;90841.63;2046399;70;20046;-76
2023/03/10 04:33:53;;;;;;;;;;;;;;;4.99;57.54;90841.53;2057212;69;20076;-77
2023/03/10 04:36:20;;;;;;;;;;;;;;;5.04;58.32;90849.50;2071978;69;20233;-78
2023/03/10 04:38:48;;;;;;;;;;;;;;;4.99;59.65;90844.31;2075149;69;20052;-77
2023/03/10 04:41:14;;;;;;;;;;;;;;;5.00;59.62;90840.94;2072037;69;20044;-76
2023/03/10 04:43:43;;;;;;;;;;;;;;;4.70;59.93;90839.34;2072013;69;20408;-77
2023/03/10 04:46:09;;;;;;;;;;;;;;;4.67;60.22;90837.78;2069213;69;20063;-76
2023/03/10 04:48:34;;;;;;;;;;;;;;;4.13;62.54;90845.44;2069314;69;20044;-74
2023/03/10 04:51:05;;;;;;;;;;;;;;;4.81;59.60;90836.50;2071987;69;20051;-74
2023/03/10 04:53:34;;;;;;;;;;;;;;;5.08;59.47;90832.22;2072078;69;20079;-76
2023/03/10 04:56:00;;;;;;;;;;;;;;;5.22;58.00;90827.38;2075219;69;20493;-77
2023/03/10 04:58:26;;;;;;;;;;;;;;;4.84;59.54;90838.03;2071964;69;20048;-72
2023/03/10 05:00:52;;;;;;;;;;;;;;;5.11;58.75;90833.78;2071812;69;20075;-77
2023/03/10 05:03:18;;;;;;;;;;;;;;;5.13;57.92;90835.94;2071775;69;20427;-74
2023/03/10 05:05:44;;;;;;;;;;;;;;;4.74;59.21;90842.34;2071888;69;20083;-76
2023/03/10 05:08:11;;;;;;;;;;;;;;;4.82;60.41;90837.22;2071620;69;20055;-76
2023/03/10 05:10:41;;;;;;;;;;;;;;;4.18;61.68;90841.53;2068958;69;20060;-75
2023/03/10 05:13:11;;;;;;;;;;;;;;;4.61;60.83;90846.56;2071798;69;20049;-76
2023/03/10 05:15:40;;;;;;;;;;;;;;;4.89;60.07;90844.53;2071930;69;20049;-73
2023/03/10 05:18:07;;;;;;;;;;;;;;;4.91;59.23;90830.69;2075151;69;20056;-75
2023/03/10 05:20:32;;;;;;;;;;;;;;;4.95;59.34;90836.50;2071961;69;20080;-77
2023/03/10 05:22:59;;;;;;;;;;;;;;;5.10;58.99;90827.50;2071969;69;20052;-77
2023/03/10 05:25:24;;;;;;;;;;;;;;;4.88;59.59;90820.06;2071953;69;20427;-77
2023/03/10 05:27:50;;;;;;;;;;;;;;;4.68;60.36;90812.13;2071932;69;20140;-77
2023/03/10 05:30:16;;;;;;;;;;;;;;;4.57;61.34;90810.13;2069026;69;20431;-77
2023/03/10 05:32:44;;;;;;;;;;;;;;;4.96;59.89;90814.91;2071652;69;20070;-77
2023/03/10 05:35:11;;;;;;;;;;;;;;;5.12;59.29;90826.84;2071897;69;20048;-77
2023/03/10 05:37:39;;;;;;;;;;;;;;;5.15;59.42;90814.47;2071825;69;20052;-76
2023/03/10 05:40:07;;;;;;;;;;;;;;;5.29;59.55;90811.66;2061759;69;20082;-76
2023/03/10 05:42:33;;;;;;;;;;;;;;;4.30;62.50;90822.66;2052384;70;20053;-78
2023/03/10 05:44:58;;;;;;;;;;;;;;;4.83;60.99;90813.56;2065330;69;20054;-80
2023/03/10 05:47:24;;;;;;;;;;;;;;;5.08;61.08;90807.13;2065350;69;20054;-79
2023/03/10 05:49:50;;;;;;;;;;;;;;;5.29;59.46;90811.66;2052347;70;20467;-72
2023/03/10 05:52:16;;;;;;;;;;;;;;;5.19;59.51;90811.88;2052408;70;20142;-78
2023/03/10 05:54:42;;;;;;;;;;;;;;;5.31;60.23;90806.91;2065285;69;20487;-78
2023/03/10 05:57:08;;;;;;;;;;;;;;;5.11;59.50;90808.69;2068193;69;20061;-79
2023/03/10 05:59:34;;;;;;;;;;;;;;;4.98;60.62;90812.22;2065252;69;20572;-79
2023/03/10 06:02:00;;;;;;;;;;;;;;;5.26;59.49;90807.31;2065392;69;20102;-79
2023/03/10 06:04:30;;;;;;;;;;;;;;;5.35;59.33;90804.31;2052290;70;20046;-79
2023/03/10 06:06:56;;;;;;;;;;;;;;;5.14;60.34;90815.09;2052514;70;20046;-79
2023/03/10 06:09:22;;;;;;;;;;;;;;;5.44;59.17;90810.28;2052408;69;20055;-79
2023/03/10 06:11:47;;;;;;;;;;;;;;;5.48;58.68;90810.47;2065348;69;20055;-79
2023/03/10 06:14:12;;;;;;;;;;;;;;;5.48;58.87;90811.19;2053466;70;20082;-77
2023/03/10 06:16:38;;;;;;;;;;;;;;;5.58;58.71;90806.09;2052714;70;20553;-78
2023/03/10 06:19:03;;;;;;;;;;;;;;;5.21;59.54;90814.75;2052940;70;20074;-75
2023/03/10 06:21:29;;;;;;;;;;;;;;;5.27;60.04;90809.50;2054116;70;20610;-73
2023/03/10 06:23:54;;;;;;;;;;;;;;;5.58;59.74;90810.97;2052603;70;20596;-72
2023/03/10 06:26:21;;;;;;;;;;;;;;;5.70;59.02;90808.06;2052465;70;20058;-74
2023/03/10 06:28:47;;;;;;;;;;;;;;;5.90;57.18;90806.19;2065356;69;20097;-74
2023/03/10 06:31:31;;;;;;;;;;;;;;;5.40;58.96;90798.91;2052374;70;20103;-74
2023/03/10 06:33:57;;;;;;;;;;;;;;;5.68;59.13;90807.94;2052223;70;20553;-78
2023/03/10 06:36:24;;;;;;;;;;;;;;;5.80;58.57;90802.94;2065174;69;20467;-72
2023/03/10 06:38:50;;;;;;;;;;;;;;;5.60;59.25;90806.22;2052451;70;20043;-71
2023/03/10 06:41:15;;;;;;;;;;;;;;;5.81;58.71;90801.59;2052318;70;20115;-73
2023/03/10 06:43:41;;;;;;;;;;;;;;;5.77;59.65;90804.94;2062439;69;20055;-75
2023/03/10 06:46:08;;;;;;;;;;;;;;;5.70;58.10;90794.09;2052252;69;20090;-77
2023/03/10 06:48:34;;;;;;;;;;;;;;;5.98;56.53;90778.69;2052134;70;20077;-72
2023/03/10 06:51:00;;;;;;;;;;;;;;;6.10;57.13;90775.75;2052107;70;20046;-72
2023/03/10 06:53:28;;;;;;;;;;;;;;;6.27;56.47;90782.78;2053689;69;20141;-76
2023/03/10 06:56:02;;;;;;;;;;;;;;;6.35;56.49;90777.56;2061261;69;20093;-76
2023/03/10 06:58:28;;;;;;;;;;;;;;;6.35;57.11;90774.75;2059588;69;20145;-77
2023/03/10 07:00:54;;;;;;;;;;;;;;;5.66;59.60;90785.53;2061880;69;20579;-76
2023/03/10 07:03:19;;;;;;;;;;;;;;;5.80;58.73;90786.91;2063393;69;20143;-80
2023/03/10 07:05:45;;;;;;;;;;;;;;;5.29;60.86;90784.47;2058831;69;20046;-72
2023/03/10 07:08:10;;;;;;;;;;;;;;;5.64;60.20;90785.44;2058860;69;20486;-76
2023/03/10 07:10:36;;;;;;;;;;;;;;;5.90;59.32;90789.44;2058863;69;20090;-74
2023/03/10 07:13:01;;;;;;;;;;;;;;;6.19;58.26;90782.44;2058928;69;20062;-73
2023/03/10 07:15:27;;;;;;;;;;;;;;;6.09;58.07;90791.03;2058711;69;20043;-71
2023/03/10 07:17:55;;;;;;;;;;;;;;;5.64;59.68;90802.91;2071548;69;20141;-75
2023/03/10 07:20:21;;;;;;;;;;;;;;;6.00;58.04;90805.97;2058696;69;20054;-75
2023/03/10 07:22:46;;;;;;;;;;;;;;;5.93;58.86;90799.41;2058403;69;20065;-71
2023/03/10 07:25:12;;;;;;;;;;;;;;;6.28;57.74;90798.94;2058683;69;20042;-71
2023/03/10 07:27:37;;;;;;;;;;;;;;;6.52;56.98;90798.59;2058706;69;20179;-77
2023/03/10 07:30:03;;;;;;;;;;;;;;;6.77;55.74;90800.38;2058667;69;20042;-73
2023/03/10 07:32:29;;;;;;;;;;;;;;;7.03;55.85;90795.91;2058265;69;20494;-72
2023/03/10 07:34:54;;;;;;;;;;;;;;;7.08;56.22;90794.75;2058544;69;20114;-71
2023/03/10 07:37:20;;;;;;;;;;;;;;;7.10;55.40;90794.09;2071770;69;20153;-72
2023/03/10 07:39:45;;;;;;;;;;;;;;;7.18;54.46;90790.94;2058648;69;20072;-72
2023/03/10 07:42:10;;;;;;;;;;;;;;;7.23;54.05;90784.84;2059013;69;20076;-74
2023/03/10 07:44:36;;;;;;;;;;;;;;;7.17;53.96;90793.00;2058761;69;20061;-71
2023/03/10 07:47:01;;;;;;;;;;;;;;;7.02;54.33;90783.28;2058858;69;20050;-70
2023/03/10 07:49:27;;;;;;;;;;;;;;;6.91;55.32;90775.81;2071639;69;20119;-72
2023/03/10 07:51:52;;;;;;;;;;;;;;;7.02;55.66;90774.19;2059011;69;20058;-73
2023/03/10 07:54:18;;;;;;;;;;;;;;;7.09;54.78;90767.47;2058750;69;20042;-73
2023/03/10 07:56:43;;;;;;;;;;;;;;;7.39;54.87;90763.16;2058672;69;20074;-77
2023/03/10 07:59:08;;;;;;;;;;;;;;;6.84;55.45;90754.53;2058663;69;20053;-76
2023/03/10 08:01:34;;;;;;;;;;;;;;;6.78;55.21;90743.09;2058667;69;20056;-77
2023/03/10 08:03:59;;;;;;;;;;;;;;;7.25;54.14;90736.66;2058542;69;20087;-74
2023/03/10 08:06:26;;;;;;;;;;;;;;;7.48;54.55;90753.00;2058752;69;20046;-78
2023/03/10 08:08:52;;;;;;;;;;;;;;;7.66;54.22;90746.72;2071717;69;20050;-74
2023/03/10 08:11:18;;;;;;;;;;;;;;;7.27;54.67;90753.53;2071738;69;20103;-72
2023/03/10 08:13:46;;;;;;;;;;;;;;;7.60;55.49;90747.88;2058928;69;20081;-73
2023/03/10 08:16:12;;;;;;;;;;;;;;;7.77;55.25;90754.84;2059153;69;20061;-78
2023/03/10 08:18:37;;;;;;;;;;;;;;;8.53;55.47;90761.28;2071990;69;20065;-72
2023/03/10 08:21:06;;;;;;;;;;;;;;;8.88;50.48;90754.81;2072177;69;20111;-71
2023/03/10 08:23:32;;;;;;;;;;;;;;;8.98;50.18;90753.75;2059690;69;20054;-72
2023/03/10 08:26:02;;;;;;;;;;;;;;;9.56;50.91;90754.31;2059681;69;20042;-74
2023/03/10 08:28:29;;;;;;;;;;;;;;;9.87;49.58;90748.31;2059624;69;20137;-76
2023/03/10 08:30:56;;;;;;;;;;;;;;;9.84;48.96;90746.09;2059444;69;20068;-77
2023/03/10 08:33:21;;;;;;;;;;;;;;;10.60;49.07;90741.44;2060642;69;20050;-77
2023/03/10 08:35:47;;;;;;;;;;;;;;;10.93;47.25;90751.50;2060121;69;20057;-75
2023/03/10 08:38:12;;;;;;;;;;;;;;;11.37;45.46;90762.59;2059904;69;20046;-77
2023/03/10 08:40:38;;;;;;;;;;;;;;;11.65;45.94;90756.25;2059183;69;20069;-77
2023/03/10 08:43:05;;;;;;;;;;;;;;;11.65;42.77;90747.78;2072179;69;20114;-74
2023/03/10 08:45:30;;;;;;;;;;;;;;;10.68;44.82;90749.41;2059135;69;20057;-71
2023/03/10 08:47:56;;;;;;;;;;;;;;;11.51;44.33;90750.97;2058853;69;20090;-74
2023/03/10 08:50:21;;;;;;;;;;;;;;;12.03;44.68;90738.88;2059057;69;20095;-74
2023/03/10 08:52:47;;;;;;;;;;;;;;;11.93;44.09;90747.81;2059280;69;20485;-72
2023/03/10 08:55:12;;;;;;;;;;;;;;;12.73;42.62;90734.13;2059073;69;20114;-77
2023/03/10 08:57:38;;;;;;;;;;;;;;;13.11;42.33;90733.50;2059003;69;20085;-76
2023/03/10 09:00:05;;;;;;;;;;;;;;;13.37;41.19;90730.50;2059251;69;20077;-76
2023/03/10 09:02:32;;;;;;;;;;;;;;;13.89;39.10;90727.19;2059108;69;20099;-76
2023/03/10 09:04:57;;;;;;;;;;;;;;;13.68;38.75;90716.91;2059280;69;20199;-76
2023/03/10 09:07:24;;;;;;;;;;;;;;;13.81;38.88;90715.03;2059160;69;20069;-76
2023/03/10 09:09:49;;;;;;;;;;;;;;;13.87;38.33;90704.53;2059059;69;20050;-76
2023/03/10 09:12:15;;;;;;;;;;;;;;;13.62;38.44;90711.16;2059083;69;20102;-76
2023/03/10 09:14:40;;;;;;;;;;;;;;;14.30;39.04;90704.50;2072088;69;20061;-76
2023/03/10 09:17:06;;;;;;;;;;;;;;;14.23;38.89;90701.56;2059057;69;20150;-76
2023/03/10 09:19:31;;;;;;;;;;;;;;;14.70;38.20;90715.72;2071988;69;20394;-74
2023/03/10 09:21:58;;;;;;;;;;;;;;;15.09;37.48;90725.44;2058994;69;20057;-71
2023/03/10 09:24:23;;;;;;;;;;;;;;;14.78;38.26;90720.78;2058720;69;20054;-71
2023/03/10 09:26:49;;;;;;;;;;;;;;;15.48;37.33;90715.28;2058846;69;20085;-75
2023/03/10 09:29:14;;;;;;;;;;;;;;;15.16;37.07;90712.06;2058893;69;20161;-74
2023/03/10 09:31:40;;;;;;;;;;;;;;;15.10;37.81;90709.88;2059019;69;20054;-74
2023/03/10 09:34:07;;;;;;;;;;;;;;;16.22;36.69;90710.34;2058648;69;20046;-74
2023/03/10 09:36:32;;;;;;;;;;;;;;;16.71;35.42;90708.56;2058823;69;20065;-74
2023/03/10 09:38:58;;;;;;;;;;;;;;;16.95;34.64;90699.53;2058950;69;20062;-76
2023/03/10 09:41:26;;;;;;;;;;;;;;;17.64;33.86;90701.22;2058834;69;20050;-75
2023/03/10 09:44:01;;;;;;;;;;;;;;;17.81;34.12;90697.03;2059058;69;20086;-77
2023/03/10 09:46:39;;;;;;;;;;;;;;;18.40;33.82;90690.69;2071860;69;20053;-75
2023/03/10 09:49:17;;;;;;;;;;;;;;;18.48;32.49;90688.56;2058804;69;20069;-75
2023/03/10 09:51:46;;;;;;;;;;;;;;;17.80;33.17;90689.91;2058891;69;20073;-76
2023/03/10 09:54:32;;;;;;;;;;;;;;;18.90;32.10;90692.09;2058713;69;20042;-73
2023/03/10 09:56:58;;;;;;;;;;;;;;;19.43;31.61;90692.66;2058895;69;20078;-72
2023/03/10 09:59:36;;;;;;;;;;;;;;;19.23;30.18;90690.56;2058847;69;20098;-75
2023/03/10 10:02:14;;;;;;;;;;;;;;;19.39;29.70;90689.81;2072080;69;20493;-79
2023/03/10 10:04:40;;;;;;;;;;;;;;;19.27;31.18;90684.88;2059025;69;20191;-75
2023/03/10 10:07:18;;;;;;;;;;;;;;;18.28;30.08;90680.72;2059008;69;20046;-77
2023/03/10 10:09:55;;;;;;;;;;;;;;;19.39;29.96;90666.28;2058879;69;20216;-75
2023/03/10 10:12:22;;;;;;;;;;;;;;;19.50;30.05;90659.81;2059240;69;20054;-72
2023/03/10 10:14:57;;;;;;;;;;;;;;;19.79;30.19;90659.69;2071913;69;20057;-72
2023/03/10 10:17:23;;;;;;;;;;;;;;;19.54;29.35;90656.22;2058635;69;20050;-72
2023/03/10 10:19:49;;;;;;;;;;;;;;;19.08;29.38;90654.97;2058649;69;20050;-75
2023/03/10 10:22:20;;;;;;;;;;;;;;;20.48;29.16;90650.69;2058599;69;20081;-76
2023/03/10 10:25:11;;;;;;;;;;;;;;;19.26;29.83;90654.22;2058700;69;20084;-77
2023/03/10 10:27:38;;;;;;;;;;;;;;;21.13;28.70;90660.78;2057872;69;20049;-77
2023/03/10 10:30:22;;;;;;;;;;;;;;;22.33;28.00;90664.34;2071650;69;20107;-77
2023/03/10 10:32:58;;;;;;;;;;;;;;;22.90;26.62;90663.44;2058497;69;20113;-74
2023/03/10 10:35:24;;;;;;;;;;;;;;;20.55;27.77;90651.34;2058394;69;20058;-77
2023/03/10 10:38:04;;;;;;;;;;;;;;;20.69;27.73;90648.34;2058650;69;20163;-76
2023/03/10 10:40:32;;;;;;;;;;;;;;;23.30;26.39;90649.81;2058891;69;20422;-77
2023/03/10 10:42:59;;;;;;;;;;;;;;;22.68;25.55;90661.63;2071680;69;20143;-77
2023/03/10 10:45:29;;;;;;;;;;;;;;;19.86;28.40;90661.09;2058633;69;20153;-79
2023/03/10 10:47:54;;;;;;;;;;;;;;;19.71;27.97;90662.59;2058599;69;20462;-77
2023/03/10 10:50:20;;;;;;;;;;;;;;;18.98;28.91;90658.59;2058622;69;20087;-78
2023/03/10 10:52:48;;;;;;;;;;;;;;;17.92;30.06;90657.94;2058713;69;20053;-77
2023/03/10 10:55:27;;;;;;;;;;;;;;;16.95;31.60;90665.44;2058760;69;20482;-74
2023/03/10 10:57:58;;;;;;;;;;;;;;;16.88;32.30;90675.31;2058962;69;20499;-76
2023/03/10 11:00:35;;;;;;;;;;;;;;;16.97;32.28;90682.47;2059014;69;20515;-76
2023/03/10 11:03:17;;;;;;;;;;;;;;;18.11;31.24;90676.44;2071810;69;20089;-76
2023/03/10 11:05:42;;;;;;;;;;;;;;;20.10;29.75;90693.78;2058887;69;20054;-75
2023/03/10 11:08:16;;;;;;;;;;;;;;;23.02;27.13;90703.41;2059018;69;20046;-75
2023/03/10 11:10:43;;;;;;;;;;;;;;;24.48;25.07;90707.78;2058809;69;20057;-75
2023/03/10 11:13:18;;;;;;;;;;;;;;;26.36;23.29;90708.75;2058927;69;20054;-75
2023/03/10 11:15:53;;;;;;;;;;;;;;;24.73;22.28;90695.72;2058805;69;20403;-72
2023/03/10 11:18:29;;;;;;;;;;;;;;;24.20;22.83;90691.13;2058658;69;20508;-74
2023/03/10 11:21:03;;;;;;;;;;;;;;;21.29;25.24;90694.22;2058770;69;20061;-74
2023/03/10 11:23:45;;;;;;;;;;;;;;;24.07;23.46;90690.69;2059803;69;20137;-75
2023/03/10 11:26:26;;;;;;;;;;;;;;;25.83;23.58;90696.53;2059967;69;20119;-76
2023/03/10 11:28:52;;;;;;;;;;;;;;;24.82;23.15;90682.53;2058773;69;20046;-75
2023/03/10 11:31:37;;;;;;;;;;;;;;;25.98;22.97;90685.34;2058706;69;20221;-76
2023/03/10 11:34:18;;;;;;;;;;;;;;;25.52;22.76;90672.88;2071669;69;20518;-76
2023/03/10 11:36:47;;;;;;;;;;;;;;;25.02;22.74;90664.09;2058782;69;20160;-76
2023/03/10 11:39:13;;;;;;;;;;;;;;;26.00;23.17;90659.34;2058680;69;20049;-76
2023/03/10 11:41:44;;;;;;;;;;;;;;;26.34;20.61;90656.91;2071637;69;20081;-75
2023/03/10 11:44:15;;;;;;;;;;;;;;;26.00;20.92;90656.44;2058654;69;20134;-75
2023/03/10 11:46:47;;;;;;;;;;;;;;;24.65;21.72;90641.25;2058742;69;20141;-75
2023/03/10 11:49:16;;;;;;;;;;;;;;;22.68;23.32;90644.44;2072092;69;20050;-76
2023/03/10 11:51:44;;;;;;;;;;;;;;;21.44;26.10;90646.88;2059155;69;20137;-76
2023/03/10 11:54:15;;;;;;;;;;;;;;;21.63;26.55;90644.50;2059174;69;20089;-75
2023/03/10 11:56:41;;;;;;;;;;;;;;;21.14;26.07;90647.91;2059257;69;20053;-74
2023/03/10 11:59:07;;;;;;;;;;;;;;;20.74;25.60;90646.16;2059165;69;20045;-75
2023/03/10 12:01:48;;;;;;;;;;;;;;;20.98;25.54;90640.22;2059178;69;20435;-75
2023/03/10 12:04:20;;;;;;;;;;;;;;;20.75;25.73;90650.44;2059051;69;20106;-72
2023/03/10 12:07:04;;;;;;;;;;;;;;;20.20;27.09;90659.44;2059245;69;20561;-73
2023/03/10 12:09:33;;;;;;;;;;;;;;;19.14;28.27;90640.00;2059191;69;20137;-73
2023/03/10 12:12:00;;;;;;;;;;;;;;;19.62;24.25;90636.25;2059289;69;20046;-73
2023/03/10 12:14:25;;;;;;;;;;;;;;;19.02;24.39;90644.31;2059190;69;20061;-73
2023/03/10 12:16:51;;;;;;;;;;;;;;;18.35;28.38;90643.69;2059346;69;20046;-72
2023/03/10 12:19:17;;;;;;;;;;;;;;;18.60;28.52;90630.84;2059041;69;20053;-72
2023/03/10 12:21:43;;;;;;;;;;;;;;;19.57;27.61;90631.97;2059259;69;20501;-76
2023/03/10 12:24:28;;;;;;;;;;;;;;;20.20;25.92;90625.16;2059361;69;20046;-75
2023/03/10 12:26:58;;;;;;;;;;;;;;;19.24;26.64;90619.97;2059189;69;20054;-74
2023/03/10 12:29:34;;;;;;;;;;;;;;;19.98;24.65;90621.03;2059160;69;20093;-76
2023/03/10 12:32:00;;;;;;;;;;;;;;;18.99;23.82;90608.69;2059151;69;20114;-74
2023/03/10 12:34:30;;;;;;;;;;;;;;;20.08;22.36;90614.53;2058996;69;20114;-76
2023/03/10 12:37:02;;;;;;;;;;;;;;;20.44;22.79;90601.41;2059184;69;20074;-75
2023/03/10 12:39:28;;;;;;;;;;;;;;;23.05;20.80;90603.66;2059102;69;20045;-76
2023/03/10 12:42:01;;;;;;;;;;;;;;;23.91;19.51;90607.69;2059129;69;20046;-76
2023/03/10 12:44:26;;;;;;;;;;;;;;;21.58;21.81;90611.66;2059134;69;20038;-77
2023/03/10 12:46:57;;;;;;;;;;;;;;;20.61;21.95;90601.97;2059112;69;20053;-77
2023/03/10 12:49:22;;;;;;;;;;;;;;;21.69;21.31;90600.75;2059021;69;20053;-77
2023/03/10 12:51:51;;;;;;;;;;;;;;;22.58;20.13;90579.34;2059039;69;20089;-76
2023/03/10 12:54:20;;;;;;;;;;;;;;;23.62;19.30;90585.31;2058905;69;20081;-74
2023/03/10 12:57:24;;;;;;;;;;;;;;;26.66;18.35;90591.75;2058958;69;20080;-75